sensor_id;sensor_type;location;lat;lon;timestamp;P1;durP1;ratioP1;P2;durP2;ratioP2
7479;SDS011;3781;42.272;22.658;2024-01-15T00:02:10;20.07;;;9.67;;
7479;SDS011;3781;42.272;22.658;2024-01-15T00:04:37;9.87;;;8.10;;
7479;SDS011;3781;42.272;22.658;2024-01-15T00:07:09;13.97;;;6.43;;
7479;SDS011;3781;42.272;22.658;2024-01-15T00:09:45;6.17;;;5.37;;
7479;SDS011;3781;42.272;22.658;2024-01-15T00:12:12;14.43;;;7.10;;
7479;SDS011;3781;42.272;22.658;2024-01-15T00:14:43;15.33;;;6.23;;
7479;SDS011;3781;42.272;22.658;2024-01-15T00:17:13;12.93;;;7.47;;
7479;SDS011;3781;42.272;22.658;2024-01-15T00:19:40;14.27;;;8.77;;
7479;SDS011;3781;42.272;22.658;2024-01-15T00:22:14;6.47;;;5.97;;
7479;SDS011;3781;42.272;22.658;2024-01-15T00:24:47;10.93;;;5.60;;
7479;SDS011;3781;42.272;22.658;2024-01-15T00:27:22;9.60;;;7.07;;
7479;SDS011;3781;42.272;22.658;2024-01-15T00:29:52;5.23;;;4.67;;
7479;SDS011;3781;42.272;22.658;2024-01-15T00:32:19;21.67;;;8.40;;
7479;SDS011;3781;42.272;22.658;2024-01-15T00:34:50;6.70;;;4.83;;
7479;SDS011;3781;42.272;22.658;2024-01-15T00:37:26;3.33;;;2.40;;
7479;SDS011;3781;42.272;22.658;2024-01-15T00:39:53;8.23;;;2.50;;
7479;SDS011;3781;42.272;22.658;2024-01-15T00:42:23;1.53;;;1.50;;
7479;SDS011;3781;42.272;22.658;2024-01-15T00:44:53;3.83;;;3.03;;
7479;SDS011;3781;42.272;22.658;2024-01-15T00:47:20;2.97;;;2.77;;
7479;SDS011;3781;42.272;22.658;2024-01-15T00:49:55;2.27;;;2.17;;
7479;SDS011;3781;42.272;22.658;2024-01-15T00:52:29;3.33;;;3.03;;
7479;SDS011;3781;42.272;22.658;2024-01-15T00:54:58;2.27;;;2.07;;
7479;SDS011;3781;42.272;22.658;2024-01-15T00:57:29;17.90;;;5.47;;
7479;SDS011;3781;42.272;22.658;2024-01-15T01:00:00;4.23;;;3.80;;
7479;SDS011;3781;42.272;22.658;2024-01-15T01:02:27;6.27;;;3.93;;
7479;SDS011;3781;42.272;22.658;2024-01-15T01:05:01;8.97;;;4.07;;
7479;SDS011;3781;42.272;22.658;2024-01-15T01:07:38;4.63;;;3.27;;
7479;SDS011;3781;42.272;22.658;2024-01-15T01:10:05;6.70;;;4.43;;
7479;SDS011;3781;42.272;22.658;2024-01-15T01:12:32;8.03;;;3.67;;
7479;SDS011;3781;42.272;22.658;2024-01-15T01:15:03;2.50;;;2.40;;
7479;SDS011;3781;42.272;22.658;2024-01-15T01:17:31;14.17;;;6.13;;
7479;SDS011;3781;42.272;22.658;2024-01-15T01:20:01;14.07;;;3.30;;
7479;SDS011;3781;42.272;22.658;2024-01-15T01:22:32;13.03;;;6.57;;
7479;SDS011;3781;42.272;22.658;2024-01-15T01:25:00;2.20;;;2.00;;
7479;SDS011;3781;42.272;22.658;2024-01-15T01:27:33;6.37;;;4.20;;
7479;SDS011;3781;42.272;22.658;2024-01-15T01:30:00;5.43;;;3.47;;
7479;SDS011;3781;42.272;22.658;2024-01-15T01:32:29;3.37;;;3.03;;
7479;SDS011;3781;42.272;22.658;2024-01-15T01:34:59;6.47;;;3.90;;
7479;SDS011;3781;42.272;22.658;2024-01-15T01:37:26;4.30;;;3.90;;
7479;SDS011;3781;42.272;22.658;2024-01-15T01:39:56;12.37;;;4.77;;
7479;SDS011;3781;42.272;22.658;2024-01-15T01:42:29;11.03;;;6.03;;
7479;SDS011;3781;42.272;22.658;2024-01-15T01:45:02;3.53;;;3.27;;
7479;SDS011;3781;42.272;22.658;2024-01-15T01:47:35;15.77;;;6.53;;
7479;SDS011;3781;42.272;22.658;2024-01-15T01:50:02;6.27;;;3.50;;
7479;SDS011;3781;42.272;22.658;2024-01-15T01:52:33;8.40;;;5.53;;
7479;SDS011;3781;42.272;22.658;2024-01-15T01:55:04;10.33;;;6.73;;
7479;SDS011;3781;42.272;22.658;2024-01-15T01:57:37;3.53;;;3.23;;
7479;SDS011;3781;42.272;22.658;2024-01-15T02:00:07;18.70;;;5.63;;
7479;SDS011;3781;42.272;22.658;2024-01-15T02:02:41;14.13;;;6.47;;
7479;SDS011;3781;42.272;22.658;2024-01-15T02:05:12;10.17;;;6.30;;
7479;SDS011;3781;42.272;22.658;2024-01-15T02:07:41;5.73;;;2.87;;
7479;SDS011;3781;42.272;22.658;2024-01-15T02:10:08;12.27;;;4.00;;
7479;SDS011;3781;42.272;22.658;2024-01-15T02:12:43;8.20;;;4.10;;
7479;SDS011;3781;42.272;22.658;2024-01-15T02:15:16;3.60;;;2.17;;
7479;SDS011;3781;42.272;22.658;2024-01-15T02:17:58;4.57;;;3.70;;
7479;SDS011;3781;42.272;22.658;2024-01-15T02:20:29;5.63;;;5.13;;
7479;SDS011;3781;42.272;22.658;2024-01-15T02:23:10;3.53;;;3.27;;
7479;SDS011;3781;42.272;22.658;2024-01-15T02:25:44;11.50;;;4.77;;
7479;SDS011;3781;42.272;22.658;2024-01-15T02:28:11;3.53;;;3.33;;
7479;SDS011;3781;42.272;22.658;2024-01-15T02:30:44;1.50;;;1.50;;
7479;SDS011;3781;42.272;22.658;2024-01-15T02:33:11;3.53;;;3.23;;
7479;SDS011;3781;42.272;22.658;2024-01-15T02:35:42;3.67;;;3.37;;
7479;SDS011;3781;42.272;22.658;2024-01-15T02:38:10;9.13;;;5.13;;
7479;SDS011;3781;42.272;22.658;2024-01-15T02:40:49;6.80;;;4.90;;
7479;SDS011;3781;42.272;22.658;2024-01-15T02:43:16;4.67;;;4.17;;
7479;SDS011;3781;42.272;22.658;2024-01-15T02:45:47;6.20;;;3.40;;
7479;SDS011;3781;42.272;22.658;2024-01-15T02:48:19;5.63;;;5.20;;
7479;SDS011;3781;42.272;22.658;2024-01-15T02:50:48;4.47;;;4.07;;
7479;SDS011;3781;42.272;22.658;2024-01-15T02:53:19;8.83;;;5.20;;
7479;SDS011;3781;42.272;22.658;2024-01-15T02:55:52;3.13;;;2.93;;
7479;SDS011;3781;42.272;22.658;2024-01-15T02:58:19;5.17;;;4.70;;
7479;SDS011;3781;42.272;22.658;2024-01-15T03:00:46;6.33;;;3.10;;
7479;SDS011;3781;42.272;22.658;2024-01-15T03:03:16;3.90;;;3.07;;
7479;SDS011;3781;42.272;22.658;2024-01-15T03:05:46;4.83;;;4.40;;
7479;SDS011;3781;42.272;22.658;2024-01-15T03:08:13;12.17;;;4.97;;
7479;SDS011;3781;42.272;22.658;2024-01-15T03:10:48;4.70;;;4.37;;
7479;SDS011;3781;42.272;22.658;2024-01-15T03:13:16;15.53;;;6.53;;
7479;SDS011;3781;42.272;22.658;2024-01-15T03:15:44;8.30;;;5.47;;
7479;SDS011;3781;42.272;22.658;2024-01-15T03:18:13;6.27;;;3.90;;
7479;SDS011;3781;42.272;22.658;2024-01-15T03:20:46;5.83;;;5.27;;
7479;SDS011;3781;42.272;22.658;2024-01-15T03:23:22;1.67;;;1.40;;
7479;SDS011;3781;42.272;22.658;2024-01-15T03:25:56;8.47;;;4.53;;
7479;SDS011;3781;42.272;22.658;2024-01-15T03:28:30;6.93;;;5.43;;
7479;SDS011;3781;42.272;22.658;2024-01-15T03:30:57;5.80;;;5.30;;
7479;SDS011;3781;42.272;22.658;2024-01-15T03:33:26;3.13;;;2.90;;
7479;SDS011;3781;42.272;22.658;2024-01-15T03:35:58;28.77;;;6.50;;
7479;SDS011;3781;42.272;22.658;2024-01-15T03:38:27;6.13;;;5.50;;
7479;SDS011;3781;42.272;22.658;2024-01-15T03:40:55;4.77;;;4.40;;
7479;SDS011;3781;42.272;22.658;2024-01-15T03:43:22;10.73;;;7.17;;
7479;SDS011;3781;42.272;22.658;2024-01-15T03:45:57;7.70;;;5.07;;
7479;SDS011;3781;42.272;22.658;2024-01-15T03:48:24;6.13;;;5.63;;
7479;SDS011;3781;42.272;22.658;2024-01-15T03:51:02;7.40;;;4.20;;
7479;SDS011;3781;42.272;22.658;2024-01-15T03:53:32;10.20;;;3.90;;
7479;SDS011;3781;42.272;22.658;2024-01-15T03:56:06;14.03;;;5.53;;
7479;SDS011;3781;42.272;22.658;2024-01-15T03:58:39;15.17;;;5.17;;
7479;SDS011;3781;42.272;22.658;2024-01-15T04:01:07;7.40;;;6.77;;
7479;SDS011;3781;42.272;22.658;2024-01-15T04:03:41;11.47;;;6.33;;
7479;SDS011;3781;42.272;22.658;2024-01-15T04:06:09;7.50;;;4.13;;
7479;SDS011;3781;42.272;22.658;2024-01-15T04:08:37;3.70;;;2.63;;
7479;SDS011;3781;42.272;22.658;2024-01-15T04:11:08;5.47;;;3.47;;
7479;SDS011;3781;42.272;22.658;2024-01-15T04:13:35;5.93;;;5.33;;
7479;SDS011;3781;42.272;22.658;2024-01-15T04:16:08;13.83;;;5.83;;
7479;SDS011;3781;42.272;22.658;2024-01-15T04:18:34;22.17;;;7.57;;
7479;SDS011;3781;42.272;22.658;2024-01-15T04:21:09;7.43;;;5.23;;
7479;SDS011;3781;42.272;22.658;2024-01-15T04:23:35;2.07;;;1.97;;
7479;SDS011;3781;42.272;22.658;2024-01-15T04:26:05;13.27;;;4.80;;
7479;SDS011;3781;42.272;22.658;2024-01-15T04:28:34;3.97;;;3.53;;
7479;SDS011;3781;42.272;22.658;2024-01-15T04:31:01;10.70;;;4.43;;
7479;SDS011;3781;42.272;22.658;2024-01-15T04:33:27;6.13;;;5.43;;
7479;SDS011;3781;42.272;22.658;2024-01-15T04:36:04;12.67;;;6.07;;
7479;SDS011;3781;42.272;22.658;2024-01-15T04:38:31;3.43;;;3.23;;
7479;SDS011;3781;42.272;22.658;2024-01-15T04:41:01;9.13;;;3.60;;
7479;SDS011;3781;42.272;22.658;2024-01-15T04:43:28;0.97;;;0.97;;
7479;SDS011;3781;42.272;22.658;2024-01-15T04:46:00;6.10;;;2.43;;
7479;SDS011;3781;42.272;22.658;2024-01-15T04:48:28;3.23;;;3.07;;
7479;SDS011;3781;42.272;22.658;2024-01-15T04:50:58;2.37;;;2.27;;
7479;SDS011;3781;42.272;22.658;2024-01-15T04:53:25;7.83;;;3.30;;
7479;SDS011;3781;42.272;22.658;2024-01-15T04:55:58;0.67;;;0.67;;
7479;SDS011;3781;42.272;22.658;2024-01-15T04:58:28;1.03;;;1.03;;
7479;SDS011;3781;42.272;22.658;2024-01-15T05:00:55;3.70;;;1.73;;
7479;SDS011;3781;42.272;22.658;2024-01-15T05:03:25;6.03;;;1.50;;
7479;SDS011;3781;42.272;22.658;2024-01-15T05:05:55;1.70;;;1.53;;
7479;SDS011;3781;42.272;22.658;2024-01-15T05:08:27;21.27;;;3.30;;
7479;SDS011;3781;42.272;22.658;2024-01-15T05:10:57;8.83;;;5.37;;
7479;SDS011;3781;42.272;22.658;2024-01-15T05:13:23;11.40;;;4.13;;
7479;SDS011;3781;42.272;22.658;2024-01-15T05:15:55;4.73;;;3.80;;
7479;SDS011;3781;42.272;22.658;2024-01-15T05:18:23;2.40;;;2.23;;
7479;SDS011;3781;42.272;22.658;2024-01-15T05:20:52;3.30;;;1.97;;
7479;SDS011;3781;42.272;22.658;2024-01-15T05:23:23;8.90;;;2.97;;
7479;SDS011;3781;42.272;22.658;2024-01-15T05:25:56;2.47;;;2.27;;
7479;SDS011;3781;42.272;22.658;2024-01-15T05:28:23;5.63;;;1.43;;
7479;SDS011;3781;42.272;22.658;2024-01-15T05:30:56;4.40;;;3.73;;
7479;SDS011;3781;42.272;22.658;2024-01-15T05:33:22;6.30;;;5.73;;
7479;SDS011;3781;42.272;22.658;2024-01-15T05:35:49;4.40;;;4.03;;
7479;SDS011;3781;42.272;22.658;2024-01-15T05:38:30;6.23;;;3.43;;
7479;SDS011;3781;42.272;22.658;2024-01-15T05:40:56;1.97;;;1.80;;
7479;SDS011;3781;42.272;22.658;2024-01-15T05:43:23;5.30;;;3.07;;
7479;SDS011;3781;42.272;22.658;2024-01-15T05:45:56;5.50;;;3.20;;
7479;SDS011;3781;42.272;22.658;2024-01-15T05:48:23;3.00;;;2.80;;
7479;SDS011;3781;42.272;22.658;2024-01-15T05:50:55;3.33;;;3.07;;
7479;SDS011;3781;42.272;22.658;2024-01-15T05:53:26;4.67;;;4.27;;
7479;SDS011;3781;42.272;22.658;2024-01-15T05:55:53;8.67;;;6.00;;
7479;SDS011;3781;42.272;22.658;2024-01-15T05:58:21;1.83;;;1.80;;
7479;SDS011;3781;42.272;22.658;2024-01-15T06:00:48;4.27;;;3.33;;
7479;SDS011;3781;42.272;22.658;2024-01-15T06:03:21;4.80;;;4.13;;
7479;SDS011;3781;42.272;22.658;2024-01-15T06:05:54;5.67;;;4.73;;
7479;SDS011;3781;42.272;22.658;2024-01-15T06:08:21;8.43;;;5.83;;
7479;SDS011;3781;42.272;22.658;2024-01-15T06:10:57;18.03;;;7.93;;
7479;SDS011;3781;42.272;22.658;2024-01-15T06:13:27;17.53;;;6.43;;
7479;SDS011;3781;42.272;22.658;2024-01-15T06:15:54;13.00;;;11.23;;
7479;SDS011;3781;42.272;22.658;2024-01-15T06:18:27;15.10;;;12.57;;
7479;SDS011;3781;42.272;22.658;2024-01-15T06:21:00;24.30;;;14.50;;
7479;SDS011;3781;42.272;22.658;2024-01-15T06:23:27;30.90;;;17.00;;
7479;SDS011;3781;42.272;22.658;2024-01-15T06:26:01;6.43;;;5.70;;
7479;SDS011;3781;42.272;22.658;2024-01-15T06:28:42;17.97;;;11.63;;
7479;SDS011;3781;42.272;22.658;2024-01-15T06:31:11;25.47;;;12.33;;
7479;SDS011;3781;42.272;22.658;2024-01-15T06:33:38;38.90;;;14.60;;
7479;SDS011;3781;42.272;22.658;2024-01-15T06:36:10;28.33;;;8.83;;
7479;SDS011;3781;42.272;22.658;2024-01-15T06:38:37;17.17;;;11.60;;
7479;SDS011;3781;42.272;22.658;2024-01-15T06:41:08;8.63;;;7.50;;
7479;SDS011;3781;42.272;22.658;2024-01-15T06:43:38;21.10;;;15.23;;
7479;SDS011;3781;42.272;22.658;2024-01-15T06:46:13;14.17;;;9.23;;
7479;SDS011;3781;42.272;22.658;2024-01-15T06:48:48;30.83;;;10.30;;
7479;SDS011;3781;42.272;22.658;2024-01-15T06:51:22;23.50;;;11.13;;
7479;SDS011;3781;42.272;22.658;2024-01-15T06:53:51;27.90;;;11.37;;
7479;SDS011;3781;42.272;22.658;2024-01-15T06:56:19;24.33;;;13.23;;
7479;SDS011;3781;42.272;22.658;2024-01-15T06:58:46;28.90;;;10.67;;
7479;SDS011;3781;42.272;22.658;2024-01-15T07:01:13;14.00;;;10.77;;
7479;SDS011;3781;42.272;22.658;2024-01-15T07:03:40;29.50;;;12.47;;
7479;SDS011;3781;42.272;22.658;2024-01-15T07:06:07;10.40;;;6.20;;
7479;SDS011;3781;42.272;22.658;2024-01-15T07:08:34;24.03;;;9.67;;
7479;SDS011;3781;42.272;22.658;2024-01-15T07:11:03;12.23;;;7.37;;
7479;SDS011;3781;42.272;22.658;2024-01-15T07:13:31;18.73;;;10.03;;
7479;SDS011;3781;42.272;22.658;2024-01-15T07:15:58;21.33;;;15.37;;
7479;SDS011;3781;42.272;22.658;2024-01-15T07:18:25;20.90;;;12.23;;
7479;SDS011;3781;42.272;22.658;2024-01-15T07:20:52;31.93;;;18.33;;
7479;SDS011;3781;42.272;22.658;2024-01-15T07:23:19;14.90;;;10.13;;
7479;SDS011;3781;42.272;22.658;2024-01-15T07:25:46;23.13;;;11.97;;
7479;SDS011;3781;42.272;22.658;2024-01-15T07:28:13;25.97;;;13.80;;
7479;SDS011;3781;42.272;22.658;2024-01-15T07:30:41;23.97;;;16.13;;
7479;SDS011;3781;42.272;22.658;2024-01-15T07:33:08;31.83;;;15.27;;
7479;SDS011;3781;42.272;22.658;2024-01-15T07:35:35;37.87;;;13.53;;
7479;SDS011;3781;42.272;22.658;2024-01-15T07:38:02;20.70;;;14.90;;
7479;SDS011;3781;42.272;22.658;2024-01-15T07:40:29;21.33;;;13.10;;
7479;SDS011;3781;42.272;22.658;2024-01-15T07:42:55;23.20;;;11.83;;
7479;SDS011;3781;42.272;22.658;2024-01-15T07:45:22;24.73;;;12.17;;
7479;SDS011;3781;42.272;22.658;2024-01-15T07:47:51;30.43;;;13.43;;
7479;SDS011;3781;42.272;22.658;2024-01-15T07:50:18;29.60;;;15.13;;
7479;SDS011;3781;42.272;22.658;2024-01-15T07:52:44;17.63;;;11.43;;
7479;SDS011;3781;42.272;22.658;2024-01-15T07:55:11;34.57;;;13.90;;
7479;SDS011;3781;42.272;22.658;2024-01-15T07:57:38;12.23;;;9.83;;
7479;SDS011;3781;42.272;22.658;2024-01-15T08:00:06;24.43;;;15.23;;
7479;SDS011;3781;42.272;22.658;2024-01-15T08:02:34;37.97;;;17.20;;
7479;SDS011;3781;42.272;22.658;2024-01-15T08:05:02;24.80;;;18.47;;
7479;SDS011;3781;42.272;22.658;2024-01-15T08:07:29;44.07;;;16.63;;
7479;SDS011;3781;42.272;22.658;2024-01-15T08:09:56;31.67;;;14.13;;
7479;SDS011;3781;42.272;22.658;2024-01-15T08:12:23;22.83;;;15.33;;
7479;SDS011;3781;42.272;22.658;2024-01-15T08:14:50;33.53;;;17.13;;
7479;SDS011;3781;42.272;22.658;2024-01-15T08:17:17;41.53;;;17.77;;
7479;SDS011;3781;42.272;22.658;2024-01-15T08:19:44;36.60;;;15.77;;
7479;SDS011;3781;42.272;22.658;2024-01-15T08:22:13;24.00;;;16.00;;
7479;SDS011;3781;42.272;22.658;2024-01-15T08:24:39;34.93;;;16.33;;
7479;SDS011;3781;42.272;22.658;2024-01-15T08:27:06;31.00;;;18.20;;
7479;SDS011;3781;42.272;22.658;2024-01-15T08:29:33;19.20;;;16.03;;
7479;SDS011;3781;42.272;22.658;2024-01-15T08:32:00;44.73;;;19.13;;
7479;SDS011;3781;42.272;22.658;2024-01-15T08:34:27;34.57;;;17.67;;
7479;SDS011;3781;42.272;22.658;2024-01-15T08:36:54;35.83;;;15.40;;
7479;SDS011;3781;42.272;22.658;2024-01-15T08:39:22;49.27;;;21.10;;
7479;SDS011;3781;42.272;22.658;2024-01-15T08:41:49;50.03;;;20.10;;
7479;SDS011;3781;42.272;22.658;2024-01-15T08:44:16;41.10;;;17.37;;
7479;SDS011;3781;42.272;22.658;2024-01-15T08:46:43;28.57;;;13.10;;
7479;SDS011;3781;42.272;22.658;2024-01-15T08:49:10;27.27;;;12.47;;
7479;SDS011;3781;42.272;22.658;2024-01-15T08:51:37;27.90;;;16.13;;
7479;SDS011;3781;42.272;22.658;2024-01-15T08:54:04;32.03;;;17.20;;
7479;SDS011;3781;42.272;22.658;2024-01-15T08:56:34;36.77;;;17.60;;
7479;SDS011;3781;42.272;22.658;2024-01-15T08:59:02;31.77;;;16.37;;
7479;SDS011;3781;42.272;22.658;2024-01-15T09:01:28;30.27;;;17.50;;
7479;SDS011;3781;42.272;22.658;2024-01-15T09:03:56;31.27;;;17.13;;
7479;SDS011;3781;42.272;22.658;2024-01-15T09:06:23;33.67;;;16.23;;
7479;SDS011;3781;42.272;22.658;2024-01-15T09:08:49;32.57;;;17.17;;
7479;SDS011;3781;42.272;22.658;2024-01-15T09:11:16;30.87;;;16.10;;
7479;SDS011;3781;42.272;22.658;2024-01-15T09:13:44;40.70;;;18.33;;
7479;SDS011;3781;42.272;22.658;2024-01-15T09:16:11;36.10;;;18.53;;
7479;SDS011;3781;42.272;22.658;2024-01-15T09:18:38;45.57;;;19.30;;
7479;SDS011;3781;42.272;22.658;2024-01-15T09:21:05;78.67;;;29.43;;
7479;SDS011;3781;42.272;22.658;2024-01-15T09:23:32;60.33;;;24.73;;
7479;SDS011;3781;42.272;22.658;2024-01-15T09:25:58;43.13;;;22.07;;
7479;SDS011;3781;42.272;22.658;2024-01-15T09:28:25;53.23;;;22.33;;
7479;SDS011;3781;42.272;22.658;2024-01-15T09:30:53;61.23;;;27.40;;
7479;SDS011;3781;42.272;22.658;2024-01-15T09:33:21;67.13;;;24.10;;
7479;SDS011;3781;42.272;22.658;2024-01-15T09:35:50;47.33;;;22.77;;
7479;SDS011;3781;42.272;22.658;2024-01-15T09:38:17;45.87;;;26.93;;
7479;SDS011;3781;42.272;22.658;2024-01-15T09:40:45;60.67;;;28.03;;
7479;SDS011;3781;42.272;22.658;2024-01-15T09:43:13;69.00;;;28.43;;
7479;SDS011;3781;42.272;22.658;2024-01-15T09:45:41;47.13;;;22.27;;
7479;SDS011;3781;42.272;22.658;2024-01-15T09:48:10;72.63;;;25.73;;
7479;SDS011;3781;42.272;22.658;2024-01-15T09:50:37;54.83;;;26.10;;
7479;SDS011;3781;42.272;22.658;2024-01-15T09:53:04;39.87;;;22.07;;
7479;SDS011;3781;42.272;22.658;2024-01-15T09:55:32;70.43;;;28.13;;
7479;SDS011;3781;42.272;22.658;2024-01-15T09:57:59;67.67;;;31.20;;
7479;SDS011;3781;42.272;22.658;2024-01-15T10:00:28;68.57;;;29.23;;
7479;SDS011;3781;42.272;22.658;2024-01-15T10:02:56;67.10;;;30.53;;
7479;SDS011;3781;42.272;22.658;2024-01-15T10:05:24;55.93;;;29.10;;
7479;SDS011;3781;42.272;22.658;2024-01-15T10:07:51;67.77;;;25.83;;
7479;SDS011;3781;42.272;22.658;2024-01-15T10:10:21;67.40;;;28.33;;
7479;SDS011;3781;42.272;22.658;2024-01-15T10:12:48;74.47;;;27.80;;
7479;SDS011;3781;42.272;22.658;2024-01-15T10:15:15;66.40;;;29.07;;
7479;SDS011;3781;42.272;22.658;2024-01-15T10:17:42;77.27;;;31.97;;
7479;SDS011;3781;42.272;22.658;2024-01-15T10:20:10;81.53;;;30.30;;
7479;SDS011;3781;42.272;22.658;2024-01-15T10:22:40;72.30;;;30.23;;
7479;SDS011;3781;42.272;22.658;2024-01-15T10:25:09;66.47;;;29.40;;
7479;SDS011;3781;42.272;22.658;2024-01-15T10:27:37;56.83;;;26.47;;
7479;SDS011;3781;42.272;22.658;2024-01-15T10:30:04;71.93;;;31.77;;
7479;SDS011;3781;42.272;22.658;2024-01-15T10:32:32;80.97;;;29.17;;
7479;SDS011;3781;42.272;22.658;2024-01-15T10:34:59;64.33;;;26.83;;
7479;SDS011;3781;42.272;22.658;2024-01-15T10:37:26;55.63;;;25.43;;
7479;SDS011;3781;42.272;22.658;2024-01-15T10:39:54;58.87;;;30.87;;
7479;SDS011;3781;42.272;22.658;2024-01-15T10:42:21;60.60;;;26.73;;
7479;SDS011;3781;42.272;22.658;2024-01-15T10:44:48;68.30;;;31.27;;
7479;SDS011;3781;42.272;22.658;2024-01-15T10:47:15;60.83;;;27.60;;
7479;SDS011;3781;42.272;22.658;2024-01-15T10:49:42;67.47;;;29.83;;
7479;SDS011;3781;42.272;22.658;2024-01-15T10:52:09;59.23;;;27.87;;
7479;SDS011;3781;42.272;22.658;2024-01-15T10:54:37;64.43;;;28.03;;
7479;SDS011;3781;42.272;22.658;2024-01-15T10:57:06;67.50;;;28.93;;
7479;SDS011;3781;42.272;22.658;2024-01-15T10:59:33;69.50;;;31.47;;
7479;SDS011;3781;42.272;22.658;2024-01-15T11:02:01;63.47;;;30.23;;
7479;SDS011;3781;42.272;22.658;2024-01-15T11:04:28;72.90;;;30.40;;
7479;SDS011;3781;42.272;22.658;2024-01-15T11:06:58;56.70;;;28.13;;
7479;SDS011;3781;42.272;22.658;2024-01-15T11:09:25;68.83;;;28.43;;
7479;SDS011;3781;42.272;22.658;2024-01-15T11:11:52;65.80;;;27.13;;
7479;SDS011;3781;42.272;22.658;2024-01-15T11:14:34;64.53;;;32.97;;
7479;SDS011;3781;42.272;22.658;2024-01-15T11:17:01;84.20;;;37.47;;
7479;SDS011;3781;42.272;22.658;2024-01-15T11:19:35;85.10;;;34.47;;
7479;SDS011;3781;42.272;22.658;2024-01-15T11:22:05;67.57;;;29.33;;
7479;SDS011;3781;42.272;22.658;2024-01-15T11:24:34;77.77;;;32.17;;
7479;SDS011;3781;42.272;22.658;2024-01-15T11:27:02;62.83;;;29.10;;
7479;SDS011;3781;42.272;22.658;2024-01-15T11:29:30;41.10;;;19.40;;
7479;SDS011;3781;42.272;22.658;2024-01-15T11:32:01;55.47;;;24.17;;
7479;SDS011;3781;42.272;22.658;2024-01-15T11:37:22;33.27;;;14.90;;
7479;SDS011;3781;42.272;22.658;2024-01-15T11:39:53;29.30;;;15.30;;
7479;SDS011;3781;42.272;22.658;2024-01-15T11:42:21;13.00;;;8.67;;
7479;SDS011;3781;42.272;22.658;2024-01-15T11:44:49;22.27;;;11.63;;
7479;SDS011;3781;42.272;22.658;2024-01-15T11:47:21;17.00;;;9.57;;
7479;SDS011;3781;42.272;22.658;2024-01-15T11:50:07;22.67;;;12.23;;
7479;SDS011;3781;42.272;22.658;2024-01-15T11:52:35;29.87;;;15.53;;
7479;SDS011;3781;42.272;22.658;2024-01-15T11:55:12;31.60;;;15.23;;
7479;SDS011;3781;42.272;22.658;2024-01-15T11:57:48;33.17;;;17.93;;
7479;SDS011;3781;42.272;22.658;2024-01-15T12:00:16;36.43;;;17.03;;
7479;SDS011;3781;42.272;22.658;2024-01-15T12:02:49;33.13;;;16.40;;
7479;SDS011;3781;42.272;22.658;2024-01-15T12:05:17;31.47;;;12.60;;
7479;SDS011;3781;42.272;22.658;2024-01-15T12:07:46;34.03;;;12.70;;
7479;SDS011;3781;42.272;22.658;2024-01-15T12:10:15;30.80;;;12.47;;
7479;SDS011;3781;42.272;22.658;2024-01-15T12:12:47;18.97;;;10.07;;
7479;SDS011;3781;42.272;22.658;2024-01-15T12:15:24;26.67;;;12.23;;
7479;SDS011;3781;42.272;22.658;2024-01-15T12:17:53;29.30;;;12.17;;
7479;SDS011;3781;42.272;22.658;2024-01-15T12:20:22;32.50;;;14.33;;
7479;SDS011;3781;42.272;22.658;2024-01-15T12:22:50;34.40;;;13.80;;
7479;SDS011;3781;42.272;22.658;2024-01-15T12:25:20;28.47;;;13.30;;
7479;SDS011;3781;42.272;22.658;2024-01-15T12:27:50;25.67;;;13.30;;
7479;SDS011;3781;42.272;22.658;2024-01-15T12:30:21;23.40;;;10.73;;
7479;SDS011;3781;42.272;22.658;2024-01-15T12:32:48;21.13;;;11.10;;
7479;SDS011;3781;42.272;22.658;2024-01-15T12:35:19;22.80;;;10.83;;
7479;SDS011;3781;42.272;22.658;2024-01-15T12:37:47;26.77;;;10.77;;
7479;SDS011;3781;42.272;22.658;2024-01-15T12:40:18;21.53;;;10.20;;
7479;SDS011;3781;42.272;22.658;2024-01-15T12:42:45;24.43;;;7.97;;
7479;SDS011;3781;42.272;22.658;2024-01-15T12:45:15;16.77;;;8.30;;
7479;SDS011;3781;42.272;22.658;2024-01-15T12:47:43;16.20;;;8.83;;
7479;SDS011;3781;42.272;22.658;2024-01-15T12:50:13;17.10;;;8.80;;
7479;SDS011;3781;42.272;22.658;2024-01-15T12:52:42;21.50;;;9.07;;
7479;SDS011;3781;42.272;22.658;2024-01-15T12:55:11;23.30;;;12.03;;
7479;SDS011;3781;42.272;22.658;2024-01-15T12:57:47;23.90;;;12.77;;
7479;SDS011;3781;42.272;22.658;2024-01-15T13:00:19;26.97;;;12.07;;
7479;SDS011;3781;42.272;22.658;2024-01-15T13:02:46;29.27;;;13.50;;
7479;SDS011;3781;42.272;22.658;2024-01-15T13:05:14;28.73;;;13.47;;
7479;SDS011;3781;42.272;22.658;2024-01-15T13:07:47;24.33;;;11.10;;
7479;SDS011;3781;42.272;22.658;2024-01-15T13:10:14;30.37;;;12.43;;
7479;SDS011;3781;42.272;22.658;2024-01-15T13:12:42;28.87;;;14.30;;
7479;SDS011;3781;42.272;22.658;2024-01-15T13:15:09;29.67;;;15.60;;
7479;SDS011;3781;42.272;22.658;2024-01-15T13:17:39;36.50;;;14.63;;
7479;SDS011;3781;42.272;22.658;2024-01-15T13:20:14;35.27;;;15.27;;
7479;SDS011;3781;42.272;22.658;2024-01-15T13:22:41;31.33;;;13.63;;
7479;SDS011;3781;42.272;22.658;2024-01-15T13:25:10;32.63;;;13.63;;
7479;SDS011;3781;42.272;22.658;2024-01-15T13:27:41;28.53;;;13.73;;
7479;SDS011;3781;42.272;22.658;2024-01-15T13:30:08;14.73;;;9.53;;
7479;SDS011;3781;42.272;22.658;2024-01-15T13:32:37;18.23;;;8.57;;
7479;SDS011;3781;42.272;22.658;2024-01-15T13:35:04;19.73;;;8.73;;
7479;SDS011;3781;42.272;22.658;2024-01-15T13:37:34;22.80;;;7.80;;
7479;SDS011;3781;42.272;22.658;2024-01-15T13:40:02;30.13;;;9.90;;
7479;SDS011;3781;42.272;22.658;2024-01-15T13:42:37;19.93;;;8.17;;
7479;SDS011;3781;42.272;22.658;2024-01-15T13:45:11;21.40;;;9.10;;
7479;SDS011;3781;42.272;22.658;2024-01-15T13:47:42;16.60;;;9.53;;
7479;SDS011;3781;42.272;22.658;2024-01-15T13:50:16;17.40;;;9.53;;
7479;SDS011;3781;42.272;22.658;2024-01-15T13:52:50;21.33;;;8.93;;
7479;SDS011;3781;42.272;22.658;2024-01-15T13:55:24;19.03;;;8.67;;
7479;SDS011;3781;42.272;22.658;2024-01-15T13:57:55;25.90;;;10.37;;
7479;SDS011;3781;42.272;22.658;2024-01-15T14:00:22;28.07;;;10.87;;
7479;SDS011;3781;42.272;22.658;2024-01-15T14:02:55;39.00;;;14.77;;
7479;SDS011;3781;42.272;22.658;2024-01-15T14:05:25;38.93;;;14.57;;
7479;SDS011;3781;42.272;22.658;2024-01-15T14:07:52;18.70;;;9.30;;
7479;SDS011;3781;42.272;22.658;2024-01-15T14:10:26;19.40;;;9.63;;
7479;SDS011;3781;42.272;22.658;2024-01-15T14:12:56;32.83;;;11.37;;
7479;SDS011;3781;42.272;22.658;2024-01-15T14:15:23;16.97;;;9.33;;
7479;SDS011;3781;42.272;22.658;2024-01-15T14:17:50;24.07;;;11.83;;
7479;SDS011;3781;42.272;22.658;2024-01-15T14:20:21;24.63;;;12.27;;
7479;SDS011;3781;42.272;22.658;2024-01-15T14:22:48;19.00;;;10.77;;
7479;SDS011;3781;42.272;22.658;2024-01-15T14:25:18;21.83;;;10.70;;
7479;SDS011;3781;42.272;22.658;2024-01-15T14:27:48;27.87;;;12.33;;
7479;SDS011;3781;42.272;22.658;2024-01-15T14:30:20;23.00;;;12.87;;
7479;SDS011;3781;42.272;22.658;2024-01-15T14:32:47;29.70;;;14.90;;
7479;SDS011;3781;42.272;22.658;2024-01-15T14:35:14;27.10;;;11.63;;
7479;SDS011;3781;42.272;22.658;2024-01-15T14:37:40;37.27;;;14.83;;
7479;SDS011;3781;42.272;22.658;2024-01-15T14:40:12;31.60;;;13.07;;
7479;SDS011;3781;42.272;22.658;2024-01-15T14:42:40;30.53;;;14.77;;
7479;SDS011;3781;42.272;22.658;2024-01-15T14:45:08;29.90;;;14.60;;
7479;SDS011;3781;42.272;22.658;2024-01-15T14:47:41;47.63;;;17.53;;
7479;SDS011;3781;42.272;22.658;2024-01-15T14:50:12;18.90;;;6.97;;
7479;SDS011;3781;42.272;22.658;2024-01-15T14:52:41;15.73;;;8.80;;
7479;SDS011;3781;42.272;22.658;2024-01-15T14:55:13;18.73;;;9.77;;
7479;SDS011;3781;42.272;22.658;2024-01-15T14:57:40;16.10;;;7.70;;
7479;SDS011;3781;42.272;22.658;2024-01-15T15:00:07;15.13;;;6.70;;
7479;SDS011;3781;42.272;22.658;2024-01-15T15:02:37;6.67;;;4.07;;